sensor_id;sensor_type;location;lat;lon;timestamp;pressure;altitude;pressure_sealevel;temperature;humidity
45941;BME280;31858;46.008;8.978;2023-12-22T00:04:53;93131.38;;;10.09;64.70
45941;BME280;31858;46.008;8.978;2023-12-22T00:14:56;93141.72;;;10.34;58.88
45941;BME280;31858;46.008;8.978;2023-12-22T00:24:58;93149.94;;;10.67;56.52
45941;BME280;31858;46.008;8.978;2023-12-22T00:35:01;93118.09;;;10.83;54.36
45941;BME280;31858;46.008;8.978;2023-12-22T00:45:03;93127.94;;;10.86;53.82
45941;BME280;31858;46.008;8.978;2023-12-22T00:55:06;93115.13;;;11.01;53.31
45941;BME280;31858;46.008;8.978;2023-12-22T01:05:08;93113.09;;;11.08;53.12
45941;BME280;31858;46.008;8.978;2023-12-22T01:15:11;93133.72;;;11.04;51.99
45941;BME280;31858;46.008;8.978;2023-12-22T01:25:13;93118.00;;;11.10;51.01
45941;BME280;31858;46.008;8.978;2023-12-22T01:35:16;93153.94;;;11.02;51.73
45941;BME280;31858;46.008;8.978;2023-12-22T01:45:17;93144.78;;;11.03;51.83
45941;BME280;31858;46.008;8.978;2023-12-22T01:55:21;93168.91;;;10.96;51.76
45941;BME280;31858;46.008;8.978;2023-12-22T02:05:22;93163.75;;;10.85;51.75
45941;BME280;31858;46.008;8.978;2023-12-22T02:15:25;93164.09;;;10.87;51.87
45941;BME280;31858;46.008;8.978;2023-12-22T02:25:29;93155.69;;;10.89;52.33
45941;BME280;31858;46.008;8.978;2023-12-22T02:35:33;93152.72;;;10.83;51.92
45941;BME280;31858;46.008;8.978;2023-12-22T02:45:38;93162.59;;;10.86;52.61
45941;BME280;31858;46.008;8.978;2023-12-22T02:55:39;93151.69;;;10.77;52.94
45941;BME280;31858;46.008;8.978;2023-12-22T03:05:42;93154.69;;;10.79;52.13
45941;BME280;31858;46.008;8.978;2023-12-22T03:15:44;93142.94;;;10.76;51.77
45941;BME280;31858;46.008;8.978;2023-12-22T03:25:48;93162.28;;;10.81;50.90
45941;BME280;31858;46.008;8.978;2023-12-22T03:35:50;93163.22;;;10.94;50.01
45941;BME280;31858;46.008;8.978;2023-12-22T03:45:53;93155.56;;;10.96;49.26
45941;BME280;31858;46.008;8.978;2023-12-22T03:55:54;93170.41;;;10.97;47.74
45941;BME280;31858;46.008;8.978;2023-12-22T04:05:57;93193.97;;;10.98;48.22
45941;BME280;31858;46.008;8.978;2023-12-22T04:15:59;93213.09;;;10.93;49.35
45941;BME280;31858;46.008;8.978;2023-12-22T04:26:03;93210.94;;;10.85;50.02
45941;BME280;31858;46.008;8.978;2023-12-22T04:36:05;93202.41;;;10.70;50.12
45941;BME280;31858;46.008;8.978;2023-12-22T04:46:09;93198.19;;;10.72;49.95
45941;BME280;31858;46.008;8.978;2023-12-22T04:56:10;93216.88;;;10.69;50.38
45941;BME280;31858;46.008;8.978;2023-12-22T05:06:13;93215.94;;;10.56;50.83
45941;BME280;31858;46.008;8.978;2023-12-22T05:16:15;93238.66;;;10.64;50.44
45941;BME280;31858;46.008;8.978;2023-12-22T05:26:19;93250.06;;;10.64;50.09
45941;BME280;31858;46.008;8.978;2023-12-22T05:36:21;93268.31;;;10.66;49.71
45941;BME280;31858;46.008;8.978;2023-12-22T05:46:23;93281.19;;;10.71;48.35
45941;BME280;31858;46.008;8.978;2023-12-22T05:56:26;93283.66;;;10.85;46.43
45941;BME280;31858;46.008;8.978;2023-12-22T06:06:29;93302.31;;;10.85;45.81
45941;BME280;31858;46.008;8.978;2023-12-22T06:16:31;93297.72;;;10.86;44.65
45941;BME280;31858;46.008;8.978;2023-12-22T06:26:34;93328.69;;;10.76;45.59
45941;BME280;31858;46.008;8.978;2023-12-22T06:36:35;93329.78;;;10.78;45.33
45941;BME280;31858;46.008;8.978;2023-12-22T06:46:38;93378.59;;;10.72;45.97
45941;BME280;31858;46.008;8.978;2023-12-22T06:56:40;93405.22;;;10.72;47.36
45941;BME280;31858;46.008;8.978;2023-12-22T07:06:44;93396.34;;;10.52;49.42
45941;BME280;31858;46.008;8.978;2023-12-22T07:16:48;93417.47;;;10.35;50.95
45941;BME280;31858;46.008;8.978;2023-12-22T07:26:50;93425.50;;;10.28;52.62
45941;BME280;31858;46.008;8.978;2023-12-22T07:36:52;93408.47;;;10.22;55.15
45941;BME280;31858;46.008;8.978;2023-12-22T07:46:59;93390.75;;;10.01;59.02
45941;BME280;31858;46.008;8.978;2023-12-22T07:57:00;93370.34;;;9.88;63.16
45941;BME280;31858;46.008;8.978;2023-12-22T08:07:04;93343.25;;;9.59;70.33
45941;BME280;31858;46.008;8.978;2023-12-22T08:17:06;93323.38;;;9.26;79.93
45941;BME280;31858;46.008;8.978;2023-12-22T08:27:09;93315.72;;;8.87;93.33
45941;BME280;31858;46.008;8.978;2023-12-22T08:37:10;93302.09;;;8.81;89.67
45941;BME280;31858;46.008;8.978;2023-12-22T08:47:13;93339.19;;;8.92;83.40
45941;BME280;31858;46.008;8.978;2023-12-22T08:57:15;93308.84;;;8.93;83.21
45941;BME280;31858;46.008;8.978;2023-12-22T09:07:18;93305.75;;;9.01;83.50
45941;BME280;31858;46.008;8.978;2023-12-22T09:17:20;93354.72;;;9.00;81.29
45941;BME280;31858;46.008;8.978;2023-12-22T09:27:23;93394.09;;;9.12;72.33
45941;BME280;31858;46.008;8.978;2023-12-22T09:37:29;93417.19;;;9.23;71.09
45941;BME280;31858;46.008;8.978;2023-12-22T09:47:32;93424.28;;;9.40;68.10
45941;BME280;31858;46.008;8.978;2023-12-22T09:57:37;93427.19;;;9.63;66.47
45941;BME280;31858;46.008;8.978;2023-12-22T10:07:41;93444.88;;;9.84;65.62
45941;BME280;31858;46.008;8.978;2023-12-22T10:17:45;93445.50;;;10.02;62.28
45941;BME280;31858;46.008;8.978;2023-12-22T10:27:51;93419.50;;;10.21;61.65
45941;BME280;31858;46.008;8.978;2023-12-22T10:37:54;93423.59;;;10.63;57.30
45941;BME280;31858;46.008;8.978;2023-12-22T10:47:58;93438.25;;;10.82;57.15
45941;BME280;31858;46.008;8.978;2023-12-22T10:58:02;93413.84;;;11.14;53.62
45941;BME280;31858;46.008;8.978;2023-12-22T11:08:07;93409.41;;;11.34;52.43
45941;BME280;31858;46.008;8.978;2023-12-22T11:18:12;93401.94;;;11.49;52.10
45941;BME280;31858;46.008;8.978;2023-12-22T11:28:18;93377.84;;;11.56;51.53
45941;BME280;31858;46.008;8.978;2023-12-22T11:38:22;93381.91;;;11.64;52.50
45941;BME280;31858;46.008;8.978;2023-12-22T11:48:25;93373.19;;;11.83;49.12
45941;BME280;31858;46.008;8.978;2023-12-22T11:58:33;93357.75;;;11.94;49.05
45941;BME280;31858;46.008;8.978;2023-12-22T12:08:36;93339.53;;;12.13;45.59
45941;BME280;31858;46.008;8.978;2023-12-22T12:18:38;93329.31;;;12.27;46.94
45941;BME280;31858;46.008;8.978;2023-12-22T12:28:44;93300.09;;;12.40;46.11
45941;BME280;31858;46.008;8.978;2023-12-22T12:38:54;93292.88;;;12.57;44.84
45941;BME280;31858;46.008;8.978;2023-12-22T12:49:04;93268.69;;;12.64;45.39
45941;BME280;31858;46.008;8.978;2023-12-22T12:59:09;93273.34;;;12.96;44.65
45941;BME280;31858;46.008;8.978;2023-12-22T13:09:12;93270.66;;;13.12;44.43
45941;BME280;31858;46.008;8.978;2023-12-22T13:19:15;93264.41;;;13.35;42.68
45941;BME280;31858;46.008;8.978;2023-12-22T13:29:18;93246.94;;;13.47;42.74
45941;BME280;31858;46.008;8.978;2023-12-22T13:39:19;93242.69;;;13.33;43.05
45941;BME280;31858;46.008;8.978;2023-12-22T13:49:34;93241.66;;;13.43;42.99
45941;BME280;31858;46.008;8.978;2023-12-22T13:59:36;93224.16;;;13.55;41.94
45941;BME280;31858;46.008;8.978;2023-12-22T14:09:40;93217.88;;;13.61;42.91
45941;BME280;31858;46.008;8.978;2023-12-22T14:19:42;93211.59;;;13.68;42.41
45941;BME280;31858;46.008;8.978;2023-12-22T14:29:45;93204.41;;;13.65;41.79
45941;BME280;31858;46.008;8.978;2023-12-22T14:39:47;93220.19;;;13.76;41.74
45941;BME280;31858;46.008;8.978;2023-12-22T14:49:50;93224.81;;;13.75;42.17
45941;BME280;31858;46.008;8.978;2023-12-22T14:59:52;93228.03;;;13.54;42.71
45941;BME280;31858;46.008;8.978;2023-12-22T15:09:55;93244.94;;;13.34;43.37
45941;BME280;31858;46.008;8.978;2023-12-22T15:19:56;93243.75;;;13.35;42.85
45941;BME280;31858;46.008;8.978;2023-12-22T15:29:59;93238.97;;;13.11;43.04
45941;BME280;31858;46.008;8.978;2023-12-22T15:40:01;93233.81;;;12.87;43.54
45941;BME280;31858;46.008;8.978;2023-12-22T15:50:06;93243.53;;;12.61;44.09
45941;BME280;31858;46.008;8.978;2023-12-22T16:00:10;93238.56;;;12.44;44.39
45941;BME280;31858;46.008;8.978;2023-12-22T16:10:13;93236.75;;;12.21;45.20
45941;BME280;31858;46.008;8.978;2023-12-22T16:20:15;93239.97;;;12.12;45.16
45941;BME280;31858;46.008;8.978;2023-12-22T16:30:18;93225.94;;;12.08;45.88
45941;BME280;31858;46.008;8.978;2023-12-22T16:40:20;93216.84;;;11.86;45.70
45941;BME280;31858;46.008;8.978;2023-12-22T16:50:23;93200.22;;;11.78;45.50
45941;BME280;31858;46.008;8.978;2023-12-22T17:00:24;93200.75;;;11.69;45.60
45941;BME280;31858;46.008;8.978;2023-12-22T17:10:28;93210.59;;;11.53;47.15
45941;BME280;31858;46.008;8.978;2023-12-22T17:20:29;93202.88;;;11.58;46.34
45941;BME280;31858;46.008;8.978;2023-12-22T17:30:32;93206.34;;;11.55;46.80
45941;BME280;31858;46.008;8.978;2023-12-22T17:40:34;93204.34;;;11.16;47.74
45941;BME280;31858;46.008;8.978;2023-12-22T17:50:37;93219.06;;;11.01;48.04
45941;BME280;31858;46.008;8.978;2023-12-22T18:00:39;93241.09;;;11.28;48.31
45941;BME280;31858;46.008;8.978;2023-12-22T18:10:42;93235.75;;;11.05;47.33
45941;BME280;31858;46.008;8.978;2023-12-22T18:20:44;93250.84;;;11.15;48.55
45941;BME280;31858;46.008;8.978;2023-12-22T18:30:47;93246.38;;;11.32;47.89
45941;BME280;31858;46.008;8.978;2023-12-22T18:40:48;93257.63;;;11.43;47.26
45941;BME280;31858;46.008;8.978;2023-12-22T18:50:51;93261.34;;;11.26;47.39
45941;BME280;31858;46.008;8.978;2023-12-22T19:00:53;93266.84;;;11.15;47.49
45941;BME280;31858;46.008;8.978;2023-12-22T19:10:56;93278.72;;;11.34;46.25
45941;BME280;31858;46.008;8.978;2023-12-22T19:21:01;93286.53;;;11.21;46.78
45941;BME280;31858;46.008;8.978;2023-12-22T19:31:04;93275.00;;;11.28;45.93
45941;BME280;31858;46.008;8.978;2023-12-22T19:41:06;93285.28;;;11.29;46.52
45941;BME280;31858;46.008;8.978;2023-12-22T19:51:08;93289.28;;;11.41;46.16
45941;BME280;31858;46.008;8.978;2023-12-22T20:01:10;93273.66;;;11.63;45.00
45941;BME280;31858;46.008;8.978;2023-12-22T20:11:15;93291.78;;;11.71;44.66
45941;BME280;31858;46.008;8.978;2023-12-22T20:21:17;93308.94;;;11.51;44.70
45941;BME280;31858;46.008;8.978;2023-12-22T20:31:21;93315.47;;;11.69;45.27
45941;BME280;31858;46.008;8.978;2023-12-22T20:41:23;93320.31;;;11.74;44.82
45941;BME280;31858;46.008;8.978;2023-12-22T20:51:26;93330.66;;;11.72;43.81
45941;BME280;31858;46.008;8.978;2023-12-22T21:01:27;93317.63;;;11.78;43.14
45941;BME280;31858;46.008;8.978;2023-12-22T21:11:30;93333.06;;;11.67;44.39
45941;BME280;31858;46.008;8.978;2023-12-22T21:21:32;93338.22;;;11.77;42.99
45941;BME280;31858;46.008;8.978;2023-12-22T21:31:35;93350.22;;;11.89;42.83
45941;BME280;31858;46.008;8.978;2023-12-22T21:41:36;93342.00;;;11.80;42.62
45941;BME280;31858;46.008;8.978;2023-12-22T21:51:39;93352.59;;;11.84;41.61
45941;BME280;31858;46.008;8.978;2023-12-22T22:01:44;93350.16;;;11.93;41.20
45941;BME280;31858;46.008;8.978;2023-12-22T22:11:47;93353.88;;;11.99;40.11
45941;BME280;31858;46.008;8.978;2023-12-22T22:21:49;93363.69;;;12.05;40.10
45941;BME280;31858;46.008;8.978;2023-12-22T22:31:53;93385.28;;;12.34;38.61
45941;BME280;31858;46.008;8.978;2023-12-22T22:41:54;93409.97;;;12.62;37.95
45941;BME280;31858;46.008;8.978;2023-12-22T22:51:57;93418.03;;;12.38;38.48
45941;BME280;31858;46.008;8.978;2023-12-22T23:01:59;93431.66;;;12.44;37.88
45941;BME280;31858;46.008;8.978;2023-12-22T23:12:02;93443.53;;;12.63;37.09
45941;BME280;31858;46.008;8.978;2023-12-22T23:22:04;93448.53;;;12.61;38.15
45941;BME280;31858;46.008;8.978;2023-12-22T23:32:07;93460.63;;;12.69;36.44
45941;BME280;31858;46.008;8.978;2023-12-22T23:42:09;93457.47;;;12.94;36.14
45941;BME280;31858;46.008;8.978;2023-12-22T23:52:12;93459.31;;;12.97;35.89
